Marcus Hook, Pennsylvania
Current Conditions -  °F | °C
As of 8:54 AM on Saturday 25 Oct 2014 (Local Time) from KPHL Reporting Station
Clear Clear  
Wind Chill: 53°   Ceiling: Unl
Heat Index: 53°   Visibility: 10mi
Dew Point: 39°   Wind: 5mph
Humidity: 59%   Direction: 290°WNW
Pressure: 29.92"   Gusts: NA
Location:  39.82°N, 75.42°W
Report Text: KPHL 251254Z 29004KT 10SM CLR 12/04 A2992 RMK AO2 SLP132 T01170039
Loading
Personal Weather Stations






























Interactive Weather Map
Tropical Storm Tracking
New forecast layout! Learn more

10-Day Weather Forecast

Advertisements
Track Severe Weather on mobile